sensor_id;sensor_type;location;lat;lon;timestamp;P1;durP1;ratioP1;P2;durP2;ratioP2
37455;SDS011;23316;50.718;7.328;2023-05-10T00:00:38;8.55;;;1.80;;
37455;SDS011;23316;50.718;7.328;2023-05-10T00:03:06;2.10;;;1.38;;
37455;SDS011;23316;50.718;7.328;2023-05-10T00:05:33;1.40;;;1.30;;
37455;SDS011;23316;50.718;7.328;2023-05-10T00:08:00;1.52;;;1.25;;
37455;SDS011;23316;50.718;7.328;2023-05-10T00:10:29;1.05;;;0.95;;
37455;SDS011;23316;50.718;7.328;2023-05-10T00:12:56;1.70;;;1.60;;
37455;SDS011;23316;50.718;7.328;2023-05-10T00:15:23;2.65;;;1.50;;
37455;SDS011;23316;50.718;7.328;2023-05-10T00:17:51;2.10;;;1.38;;
37455;SDS011;23316;50.718;7.328;2023-05-10T00:20:18;1.25;;;1.15;;
37455;SDS011;23316;50.718;7.328;2023-05-10T00:22:45;2.70;;;1.45;;
37455;SDS011;23316;50.718;7.328;2023-05-10T00:25:13;1.58;;;1.48;;
37455;SDS011;23316;50.718;7.328;2023-05-10T00:27:41;1.40;;;1.25;;
37455;SDS011;23316;50.718;7.328;2023-05-10T00:30:09;2.40;;;1.77;;
37455;SDS011;23316;50.718;7.328;2023-05-10T00:32:36;1.55;;;1.45;;
37455;SDS011;23316;50.718;7.328;2023-05-10T00:35:04;1.80;;;1.33;;
37455;SDS011;23316;50.718;7.328;2023-05-10T00:37:31;4.53;;;1.38;;
37455;SDS011;23316;50.718;7.328;2023-05-10T00:39:59;2.92;;;1.60;;
37455;SDS011;23316;50.718;7.328;2023-05-10T00:42:26;2.72;;;1.30;;
37455;SDS011;23316;50.718;7.328;2023-05-10T00:44:55;2.58;;;1.50;;
37455;SDS011;23316;50.718;7.328;2023-05-10T00:47:23;1.63;;;1.33;;
37455;SDS011;23316;50.718;7.328;2023-05-10T00:49:50;2.53;;;1.90;;
37455;SDS011;23316;50.718;7.328;2023-05-10T00:52:18;2.65;;;2.00;;
37455;SDS011;23316;50.718;7.328;2023-05-10T00:54:46;1.63;;;1.38;;
37455;SDS011;23316;50.718;7.328;2023-05-10T00:57:14;1.67;;;1.58;;
37455;SDS011;23316;50.718;7.328;2023-05-10T00:59:41;3.78;;;1.90;;
37455;SDS011;23316;50.718;7.328;2023-05-10T01:02:10;2.83;;;1.90;;
37455;SDS011;23316;50.718;7.328;2023-05-10T01:04:38;2.35;;;1.88;;
37455;SDS011;23316;50.718;7.328;2023-05-10T01:07:06;2.30;;;2.10;;
37455;SDS011;23316;50.718;7.328;2023-05-10T01:09:33;2.30;;;2.10;;
37455;SDS011;23316;50.718;7.328;2023-05-10T01:12:01;3.45;;;2.53;;
37455;SDS011;23316;50.718;7.328;2023-05-10T01:14:29;2.22;;;2.03;;
37455;SDS011;23316;50.718;7.328;2023-05-10T01:16:57;2.35;;;2.15;;
37455;SDS011;23316;50.718;7.328;2023-05-10T01:19:26;2.90;;;2.70;;
37455;SDS011;23316;50.718;7.328;2023-05-10T01:21:57;4.22;;;2.80;;
37455;SDS011;23316;50.718;7.328;2023-05-10T01:24:37;3.05;;;2.42;;
37455;SDS011;23316;50.718;7.328;2023-05-10T01:27:25;2.53;;;2.08;;
37455;SDS011;23316;50.718;7.328;2023-05-10T01:33:09;1.60;;;1.50;;
37455;SDS011;23316;50.718;7.328;2023-05-10T01:35:43;1.80;;;1.70;;
37455;SDS011;23316;50.718;7.328;2023-05-10T01:38:16;1.50;;;1.40;;
37455;SDS011;23316;50.718;7.328;2023-05-10T01:40:48;3.08;;;1.40;;
37455;SDS011;23316;50.718;7.328;2023-05-10T01:43:28;1.60;;;1.23;;
37455;SDS011;23316;50.718;7.328;2023-05-10T01:46:01;1.20;;;1.10;;
37455;SDS011;23316;50.718;7.328;2023-05-10T01:48:37;1.20;;;1.10;;
37455;SDS011;23316;50.718;7.328;2023-05-10T01:51:12;1.25;;;1.13;;
37455;SDS011;23316;50.718;7.328;2023-05-10T01:53:42;1.52;;;1.10;;
37455;SDS011;23316;50.718;7.328;2023-05-10T01:56:10;1.10;;;1.00;;
37455;SDS011;23316;50.718;7.328;2023-05-10T01:58:39;2.15;;;1.10;;
37455;SDS011;23316;50.718;7.328;2023-05-10T02:01:11;1.00;;;0.90;;
37455;SDS011;23316;50.718;7.328;2023-05-10T02:03:41;0.77;;;0.70;;
37455;SDS011;23316;50.718;7.328;2023-05-10T02:06:10;0.98;;;0.77;;
37455;SDS011;23316;50.718;7.328;2023-05-10T02:08:39;1.23;;;0.90;;
37455;SDS011;23316;50.718;7.328;2023-05-10T02:11:07;1.25;;;0.70;;
37455;SDS011;23316;50.718;7.328;2023-05-10T02:13:35;0.98;;;0.82;;
37455;SDS011;23316;50.718;7.328;2023-05-10T02:16:05;2.08;;;0.70;;
37455;SDS011;23316;50.718;7.328;2023-05-10T02:18:33;1.50;;;0.90;;
37455;SDS011;23316;50.718;7.328;2023-05-10T02:21:03;1.60;;;0.90;;
37455;SDS011;23316;50.718;7.328;2023-05-10T02:23:31;5.63;;;0.80;;
37455;SDS011;23316;50.718;7.328;2023-05-10T02:25:59;1.10;;;0.90;;
37455;SDS011;23316;50.718;7.328;2023-05-10T02:28:28;1.00;;;0.90;;
37455;SDS011;23316;50.718;7.328;2023-05-10T02:30:56;1.30;;;1.10;;
37455;SDS011;23316;50.718;7.328;2023-05-10T02:33:24;1.50;;;1.15;;
37455;SDS011;23316;50.718;7.328;2023-05-10T02:35:52;1.75;;;1.30;;
37455;SDS011;23316;50.718;7.328;2023-05-10T02:38:22;2.20;;;1.05;;
37455;SDS011;23316;50.718;7.328;2023-05-10T02:40:50;3.70;;;1.02;;
37455;SDS011;23316;50.718;7.328;2023-05-10T02:43:18;1.08;;;0.90;;
37455;SDS011;23316;50.718;7.328;2023-05-10T02:45:49;6.85;;;1.00;;
37455;SDS011;23316;50.718;7.328;2023-05-10T02:48:16;0.95;;;0.85;;
37455;SDS011;23316;50.718;7.328;2023-05-10T02:50:44;2.33;;;1.05;;
37455;SDS011;23316;50.718;7.328;2023-05-10T02:53:15;0.73;;;0.60;;
37455;SDS011;23316;50.718;7.328;2023-05-10T02:55:49;1.38;;;0.80;;
37455;SDS011;23316;50.718;7.328;2023-05-10T02:58:18;1.05;;;0.90;;
37455;SDS011;23316;50.718;7.328;2023-05-10T03:00:46;0.93;;;0.82;;
37455;SDS011;23316;50.718;7.328;2023-05-10T03:03:13;1.00;;;0.90;;
37455;SDS011;23316;50.718;7.328;2023-05-10T03:05:40;1.05;;;0.80;;
37455;SDS011;23316;50.718;7.328;2023-05-10T03:08:08;1.38;;;1.00;;
37455;SDS011;23316;50.718;7.328;2023-05-10T03:10:38;1.58;;;1.20;;
37455;SDS011;23316;50.718;7.328;2023-05-10T03:13:20;2.70;;;1.40;;
37455;SDS011;23316;50.718;7.328;2023-05-10T03:16:03;1.45;;;1.20;;
37455;SDS011;23316;50.718;7.328;2023-05-10T03:18:37;1.17;;;1.08;;
37455;SDS011;23316;50.718;7.328;2023-05-10T03:21:10;2.67;;;1.77;;
37455;SDS011;23316;50.718;7.328;2023-05-10T03:23:41;3.38;;;2.00;;
37455;SDS011;23316;50.718;7.328;2023-05-10T03:26:11;4.32;;;1.80;;
37455;SDS011;23316;50.718;7.328;2023-05-10T03:28:45;2.92;;;1.75;;
37455;SDS011;23316;50.718;7.328;2023-05-10T03:31:14;3.00;;;2.38;;
37455;SDS011;23316;50.718;7.328;2023-05-10T03:33:45;3.53;;;2.00;;
37455;SDS011;23316;50.718;7.328;2023-05-10T03:36:13;4.82;;;1.70;;
37455;SDS011;23316;50.718;7.328;2023-05-10T03:38:41;2.22;;;1.77;;
37455;SDS011;23316;50.718;7.328;2023-05-10T03:41:08;2.97;;;1.73;;
37455;SDS011;23316;50.718;7.328;2023-05-10T03:43:36;1.92;;;1.80;;
37455;SDS011;23316;50.718;7.328;2023-05-10T03:46:05;1.95;;;1.70;;
37455;SDS011;23316;50.718;7.328;2023-05-10T03:48:32;3.60;;;2.70;;
37455;SDS011;23316;50.718;7.328;2023-05-10T03:51:00;4.72;;;2.78;;
37455;SDS011;23316;50.718;7.328;2023-05-10T03:53:27;4.93;;;3.20;;
37455;SDS011;23316;50.718;7.328;2023-05-10T03:55:54;4.18;;;3.25;;
37455;SDS011;23316;50.718;7.328;2023-05-10T03:58:22;5.80;;;4.03;;
37455;SDS011;23316;50.718;7.328;2023-05-10T04:00:49;4.95;;;3.70;;
37455;SDS011;23316;50.718;7.328;2023-05-10T04:03:18;4.60;;;3.50;;
37455;SDS011;23316;50.718;7.328;2023-05-10T04:05:45;6.93;;;4.55;;
37455;SDS011;23316;50.718;7.328;2023-05-10T04:08:13;7.78;;;4.63;;
37455;SDS011;23316;50.718;7.328;2023-05-10T04:10:41;5.95;;;4.15;;
37455;SDS011;23316;50.718;7.328;2023-05-10T04:13:09;6.43;;;4.90;;
37455;SDS011;23316;50.718;7.328;2023-05-10T04:15:36;6.82;;;4.60;;
37455;SDS011;23316;50.718;7.328;2023-05-10T04:18:03;7.25;;;5.13;;
37455;SDS011;23316;50.718;7.328;2023-05-10T04:20:33;7.03;;;5.32;;
37455;SDS011;23316;50.718;7.328;2023-05-10T04:23:00;8.55;;;5.45;;
37455;SDS011;23316;50.718;7.328;2023-05-10T04:25:27;7.68;;;5.55;;
37455;SDS011;23316;50.718;7.328;2023-05-10T04:27:54;8.75;;;6.07;;
37455;SDS011;23316;50.718;7.328;2023-05-10T04:30:22;7.30;;;5.30;;
37455;SDS011;23316;50.718;7.328;2023-05-10T04:32:49;10.65;;;5.95;;
37455;SDS011;23316;50.718;7.328;2023-05-10T04:35:16;10.50;;;6.38;;
37455;SDS011;23316;50.718;7.328;2023-05-10T04:37:45;13.10;;;7.75;;
37455;SDS011;23316;50.718;7.328;2023-05-10T04:40:12;11.23;;;7.20;;
37455;SDS011;23316;50.718;7.328;2023-05-10T04:42:39;15.23;;;9.40;;
37455;SDS011;23316;50.718;7.328;2023-05-10T04:45:08;15.82;;;9.02;;
37455;SDS011;23316;50.718;7.328;2023-05-10T04:47:36;13.45;;;8.45;;
37455;SDS011;23316;50.718;7.328;2023-05-10T04:50:03;15.18;;;8.73;;
37455;SDS011;23316;50.718;7.328;2023-05-10T04:52:31;12.50;;;7.22;;
37455;SDS011;23316;50.718;7.328;2023-05-10T04:55:00;11.18;;;7.45;;
37455;SDS011;23316;50.718;7.328;2023-05-10T04:57:27;12.63;;;7.85;;
37455;SDS011;23316;50.718;7.328;2023-05-10T04:59:54;15.02;;;9.07;;
37455;SDS011;23316;50.718;7.328;2023-05-10T05:02:22;13.82;;;8.60;;
37455;SDS011;23316;50.718;7.328;2023-05-10T05:04:49;12.98;;;8.43;;
37455;SDS011;23316;50.718;7.328;2023-05-10T05:07:16;11.57;;;8.65;;
37455;SDS011;23316;50.718;7.328;2023-05-10T05:09:43;11.90;;;7.68;;
37455;SDS011;23316;50.718;7.328;2023-05-10T05:12:12;12.90;;;9.45;;
37455;SDS011;23316;50.718;7.328;2023-05-10T05:14:39;11.93;;;8.15;;
37455;SDS011;23316;50.718;7.328;2023-05-10T05:17:07;15.07;;;8.57;;
37455;SDS011;23316;50.718;7.328;2023-05-10T05:19:34;10.98;;;8.45;;
37455;SDS011;23316;50.718;7.328;2023-05-10T05:22:02;10.40;;;8.02;;
37455;SDS011;23316;50.718;7.328;2023-05-10T05:24:32;11.07;;;8.30;;
37455;SDS011;23316;50.718;7.328;2023-05-10T05:27:01;11.48;;;8.70;;
37455;SDS011;23316;50.718;7.328;2023-05-10T05:29:30;12.75;;;9.38;;
37455;SDS011;23316;50.718;7.328;2023-05-10T05:31:58;15.68;;;8.93;;
37455;SDS011;23316;50.718;7.328;2023-05-10T05:34:25;12.68;;;8.55;;
37455;SDS011;23316;50.718;7.328;2023-05-10T05:36:52;12.75;;;8.38;;
37455;SDS011;23316;50.718;7.328;2023-05-10T05:39:19;14.77;;;8.90;;
37455;SDS011;23316;50.718;7.328;2023-05-10T05:41:46;11.55;;;8.30;;
37455;SDS011;23316;50.718;7.328;2023-05-10T05:44:14;13.85;;;10.00;;
37455;SDS011;23316;50.718;7.328;2023-05-10T05:46:42;12.43;;;9.23;;
37455;SDS011;23316;50.718;7.328;2023-05-10T05:49:09;13.00;;;9.18;;
37455;SDS011;23316;50.718;7.328;2023-05-10T05:51:37;14.93;;;9.00;;
37455;SDS011;23316;50.718;7.328;2023-05-10T05:54:04;11.85;;;8.80;;
37455;SDS011;23316;50.718;7.328;2023-05-10T05:56:32;11.73;;;8.85;;
37455;SDS011;23316;50.718;7.328;2023-05-10T05:58:59;12.60;;;8.68;;
37455;SDS011;23316;50.718;7.328;2023-05-10T06:01:26;12.55;;;8.38;;
37455;SDS011;23316;50.718;7.328;2023-05-10T06:03:55;9.18;;;7.07;;
37455;SDS011;23316;50.718;7.328;2023-05-10T06:06:22;10.88;;;7.43;;
37455;SDS011;23316;50.718;7.328;2023-05-10T06:08:49;8.38;;;6.38;;
37455;SDS011;23316;50.718;7.328;2023-05-10T06:11:16;9.65;;;6.95;;
37455;SDS011;23316;50.718;7.328;2023-05-10T06:13:44;10.02;;;6.53;;
37455;SDS011;23316;50.718;7.328;2023-05-10T06:16:11;7.45;;;5.85;;
37455;SDS011;23316;50.718;7.328;2023-05-10T06:18:39;9.52;;;6.85;;
37455;SDS011;23316;50.718;7.328;2023-05-10T06:21:07;7.90;;;5.32;;
37455;SDS011;23316;50.718;7.328;2023-05-10T06:23:35;13.13;;;6.60;;
37455;SDS011;23316;50.718;7.328;2023-05-10T06:26:02;7.95;;;5.97;;
37455;SDS011;23316;50.718;7.328;2023-05-10T06:28:29;7.95;;;6.32;;
37455;SDS011;23316;50.718;7.328;2023-05-10T06:30:57;8.23;;;5.20;;
37455;SDS011;23316;50.718;7.328;2023-05-10T06:33:24;9.20;;;6.13;;
37455;SDS011;23316;50.718;7.328;2023-05-10T06:35:52;8.70;;;5.90;;
37455;SDS011;23316;50.718;7.328;2023-05-10T06:38:21;6.82;;;5.97;;
37455;SDS011;23316;50.718;7.328;2023-05-10T06:40:48;7.35;;;5.40;;
37455;SDS011;23316;50.718;7.328;2023-05-10T06:43:16;9.85;;;6.20;;
37455;SDS011;23316;50.718;7.328;2023-05-10T06:45:43;8.13;;;6.03;;
37455;SDS011;23316;50.718;7.328;2023-05-10T06:48:11;7.22;;;5.18;;
37455;SDS011;23316;50.718;7.328;2023-05-10T06:50:38;8.07;;;5.60;;
37455;SDS011;23316;50.718;7.328;2023-05-10T06:53:05;9.20;;;6.10;;
37455;SDS011;23316;50.718;7.328;2023-05-10T06:55:34;7.80;;;5.53;;
37455;SDS011;23316;50.718;7.328;2023-05-10T06:58:01;7.72;;;5.35;;
37455;SDS011;23316;50.718;7.328;2023-05-10T07:00:29;7.68;;;5.38;;
37455;SDS011;23316;50.718;7.328;2023-05-10T07:02:56;6.93;;;5.47;;
37455;SDS011;23316;50.718;7.328;2023-05-10T07:05:23;7.50;;;5.40;;
37455;SDS011;23316;50.718;7.328;2023-05-10T07:07:53;7.35;;;5.32;;
37455;SDS011;23316;50.718;7.328;2023-05-10T07:10:20;8.50;;;5.68;;
37455;SDS011;23316;50.718;7.328;2023-05-10T07:12:48;6.60;;;4.93;;
37455;SDS011;23316;50.718;7.328;2023-05-10T07:15:16;8.38;;;5.60;;
37455;SDS011;23316;50.718;7.328;2023-05-10T07:17:43;7.90;;;4.57;;
37455;SDS011;23316;50.718;7.328;2023-05-10T07:20:11;7.90;;;5.30;;
37455;SDS011;23316;50.718;7.328;2023-05-10T07:22:38;7.45;;;5.25;;
37455;SDS011;23316;50.718;7.328;2023-05-10T07:25:06;5.45;;;4.55;;
37455;SDS011;23316;50.718;7.328;2023-05-10T07:27:34;8.80;;;5.07;;
37455;SDS011;23316;50.718;7.328;2023-05-10T07:30:02;7.05;;;5.07;;
37455;SDS011;23316;50.718;7.328;2023-05-10T07:32:30;7.13;;;4.25;;
37455;SDS011;23316;50.718;7.328;2023-05-10T07:34:57;5.80;;;4.22;;
37455;SDS011;23316;50.718;7.328;2023-05-10T07:37:24;5.25;;;3.88;;
37455;SDS011;23316;50.718;7.328;2023-05-10T07:39:52;6.32;;;3.70;;
37455;SDS011;23316;50.718;7.328;2023-05-10T07:42:19;6.38;;;3.80;;
37455;SDS011;23316;50.718;7.328;2023-05-10T07:44:46;5.18;;;3.28;;
37455;SDS011;23316;50.718;7.328;2023-05-10T07:47:16;7.65;;;3.25;;
37455;SDS011;23316;50.718;7.328;2023-05-10T07:49:43;8.98;;;3.80;;
37455;SDS011;23316;50.718;7.328;2023-05-10T07:52:10;6.88;;;3.65;;
37455;SDS011;23316;50.718;7.328;2023-05-10T07:54:38;5.47;;;2.92;;
37455;SDS011;23316;50.718;7.328;2023-05-10T07:57:05;4.70;;;3.33;;
37455;SDS011;23316;50.718;7.328;2023-05-10T07:59:32;3.78;;;2.70;;
37455;SDS011;23316;50.718;7.328;2023-05-10T08:01:59;5.32;;;2.10;;
37455;SDS011;23316;50.718;7.328;2023-05-10T08:04:28;3.22;;;2.00;;
37455;SDS011;23316;50.718;7.328;2023-05-10T08:06:55;3.80;;;2.00;;
37455;SDS011;23316;50.718;7.328;2023-05-10T08:09:22;2.85;;;1.95;;
37455;SDS011;23316;50.718;7.328;2023-05-10T08:11:49;2.90;;;1.88;;
37455;SDS011;23316;50.718;7.328;2023-05-10T08:14:17;3.67;;;1.88;;
37455;SDS011;23316;50.718;7.328;2023-05-10T08:16:44;2.53;;;1.80;;
37455;SDS011;23316;50.718;7.328;2023-05-10T08:19:11;2.50;;;1.90;;
37455;SDS011;23316;50.718;7.328;2023-05-10T08:21:40;1.83;;;1.65;;
37455;SDS011;23316;50.718;7.328;2023-05-10T08:24:07;4.68;;;2.38;;
37455;SDS011;23316;50.718;7.328;2023-05-10T08:26:35;3.33;;;2.47;;
37455;SDS011;23316;50.718;7.328;2023-05-10T08:29:02;3.17;;;1.70;;
37455;SDS011;23316;50.718;7.328;2023-05-10T08:31:29;3.53;;;1.80;;
37455;SDS011;23316;50.718;7.328;2023-05-10T08:33:56;2.88;;;1.98;;
37455;SDS011;23316;50.718;7.328;2023-05-10T08:36:23;5.28;;;1.92;;
37455;SDS011;23316;50.718;7.328;2023-05-10T08:38:53;3.90;;;2.38;;
37455;SDS011;23316;50.718;7.328;2023-05-10T08:41:21;3.53;;;2.03;;
37455;SDS011;23316;50.718;7.328;2023-05-10T08:43:50;4.15;;;2.17;;
37455;SDS011;23316;50.718;7.328;2023-05-10T08:46:18;3.90;;;2.30;;
37455;SDS011;23316;50.718;7.328;2023-05-10T08:48:47;3.25;;;2.20;;
37455;SDS011;23316;50.718;7.328;2023-05-10T08:51:17;4.70;;;2.72;;
37455;SDS011;23316;50.718;7.328;2023-05-10T08:53:46;6.90;;;2.63;;
37455;SDS011;23316;50.718;7.328;2023-05-10T08:56:16;5.38;;;2.72;;
37455;SDS011;23316;50.718;7.328;2023-05-10T08:58:45;5.03;;;2.95;;
37455;SDS011;23316;50.718;7.328;2023-05-10T09:01:12;6.35;;;2.92;;
37455;SDS011;23316;50.718;7.328;2023-05-10T09:03:41;3.78;;;2.28;;
37455;SDS011;23316;50.718;7.328;2023-05-10T09:06:09;8.35;;;2.70;;
37455;SDS011;23316;50.718;7.328;2023-05-10T09:08:40;4.53;;;2.28;;
37455;SDS011;23316;50.718;7.328;2023-05-10T09:11:08;3.67;;;2.22;;
37455;SDS011;23316;50.718;7.328;2023-05-10T09:13:37;8.85;;;2.38;;
37455;SDS011;23316;50.718;7.328;2023-05-10T09:16:05;3.47;;;2.28;;
37455;SDS011;23316;50.718;7.328;2023-05-10T09:18:32;3.28;;;2.03;;
37455;SDS011;23316;50.718;7.328;2023-05-10T09:23:56;5.55;;;2.22;;
37455;SDS011;23316;50.718;7.328;2023-05-10T09:26:23;4.47;;;2.80;;
37455;SDS011;23316;50.718;7.328;2023-05-10T09:28:52;3.90;;;3.22;;
37455;SDS011;23316;50.718;7.328;2023-05-10T09:31:21;3.85;;;2.35;;
37455;SDS011;23316;50.718;7.328;2023-05-10T09:33:49;4.97;;;2.60;;
37455;SDS011;23316;50.718;7.328;2023-05-10T09:36:17;7.72;;;2.90;;
37455;SDS011;23316;50.718;7.328;2023-05-10T09:38:45;5.63;;;2.15;;
37455;SDS011;23316;50.718;7.328;2023-05-10T09:41:16;2.83;;;1.75;;
37455;SDS011;23316;50.718;7.328;2023-05-10T09:43:44;14.15;;;2.67;;
37455;SDS011;23316;50.718;7.328;2023-05-10T09:46:13;2.83;;;1.23;;
37455;SDS011;23316;50.718;7.328;2023-05-10T09:48:41;5.20;;;1.80;;
37455;SDS011;23316;50.718;7.328;2023-05-10T09:51:09;2.30;;;1.50;;
37455;SDS011;23316;50.718;7.328;2023-05-10T09:53:37;2.33;;;0.93;;
37455;SDS011;23316;50.718;7.328;2023-05-10T09:56:04;3.20;;;1.10;;
37455;SDS011;23316;50.718;7.328;2023-05-10T09:58:32;3.95;;;0.90;;
37455;SDS011;23316;50.718;7.328;2023-05-10T10:01:03;2.08;;;1.02;;
37455;SDS011;23316;50.718;7.328;2023-05-10T10:03:32;1.92;;;1.00;;
37455;SDS011;23316;50.718;7.328;2023-05-10T10:05:59;1.10;;;0.80;;
37455;SDS011;23316;50.718;7.328;2023-05-10T10:08:26;1.48;;;1.00;;
37455;SDS011;23316;50.718;7.328;2023-05-10T10:10:53;0.70;;;0.68;;
37455;SDS011;23316;50.718;7.328;2023-05-10T10:13:21;2.30;;;1.00;;
37455;SDS011;23316;50.718;7.328;2023-05-10T10:15:48;1.42;;;0.90;;
37455;SDS011;23316;50.718;7.328;2023-05-10T10:18:17;0.95;;;0.90;;
37455;SDS011;23316;50.718;7.328;2023-05-10T10:20:50;0.88;;;0.85;;
37455;SDS011;23316;50.718;7.328;2023-05-10T10:23:17;1.25;;;0.98;;
37455;SDS011;23316;50.718;7.328;2023-05-10T10:25:44;1.20;;;0.88;;
37455;SDS011;23316;50.718;7.328;2023-05-10T10:28:16;1.30;;;1.05;;
37455;SDS011;23316;50.718;7.328;2023-05-10T10:30:51;1.20;;;0.90;;
37455;SDS011;23316;50.718;7.328;2023-05-10T10:36:11;1.17;;;1.08;;
37455;SDS011;23316;50.718;7.328;2023-05-10T10:38:55;1.20;;;0.85;;
37455;SDS011;23316;50.718;7.328;2023-05-10T10:41:30;1.88;;;1.05;;
37455;SDS011;23316;50.718;7.328;2023-05-10T10:47:04;1.80;;;1.20;;
37455;SDS011;23316;50.718;7.328;2023-05-10T10:49:37;2.38;;;1.50;;
37455;SDS011;23316;50.718;7.328;2023-05-10T10:52:20;1.77;;;1.48;;
37455;SDS011;23316;50.718;7.328;2023-05-10T10:54:52;1.70;;;1.60;;
37455;SDS011;23316;50.718;7.328;2023-05-10T10:57:21;1.55;;;1.40;;
37455;SDS011;23316;50.718;7.328;2023-05-10T10:59:48;2.47;;;1.40;;
37455;SDS011;23316;50.718;7.328;2023-05-10T11:02:40;2.55;;;2.03;;
37455;SDS011;23316;50.718;7.328;2023-05-10T11:05:24;2.75;;;2.25;;
37455;SDS011;23316;50.718;7.328;2023-05-10T11:08:14;7.93;;;4.22;;
37455;SDS011;23316;50.718;7.328;2023-05-10T11:10:50;8.48;;;5.22;;
37455;SDS011;23316;50.718;7.328;2023-05-10T11:13:26;9.48;;;5.32;;
37455;SDS011;23316;50.718;7.328;2023-05-10T11:15:56;14.30;;;6.40;;
37455;SDS011;23316;50.718;7.328;2023-05-10T11:18:24;11.70;;;7.05;;
37455;SDS011;23316;50.718;7.328;2023-05-10T11:20:55;11.32;;;7.10;;
37455;SDS011;23316;50.718;7.328;2023-05-10T11:23:28;15.18;;;7.20;;
37455;SDS011;23316;50.718;7.328;2023-05-10T11:25:56;14.40;;;7.53;;
37455;SDS011;23316;50.718;7.328;2023-05-10T11:28:24;8.55;;;5.57;;
37455;SDS011;23316;50.718;7.328;2023-05-10T11:30:53;8.80;;;5.35;;
37455;SDS011;23316;50.718;7.328;2023-05-10T11:33:22;7.60;;;5.25;;
37455;SDS011;23316;50.718;7.328;2023-05-10T11:35:49;7.82;;;5.03;;
37455;SDS011;23316;50.718;7.328;2023-05-10T11:38:16;9.20;;;5.38;;
37455;SDS011;23316;50.718;7.328;2023-05-10T11:40:45;9.73;;;5.97;;
37455;SDS011;23316;50.718;7.328;2023-05-10T11:43:12;9.02;;;5.15;;
37455;SDS011;23316;50.718;7.328;2023-05-10T11:45:40;7.95;;;4.80;;
37455;SDS011;23316;50.718;7.328;2023-05-10T11:48:07;7.72;;;5.00;;
37455;SDS011;23316;50.718;7.328;2023-05-10T11:50:35;6.38;;;4.88;;
37455;SDS011;23316;50.718;7.328;2023-05-10T11:53:02;7.68;;;5.40;;
37455;SDS011;23316;50.718;7.328;2023-05-10T11:55:30;5.55;;;4.43;;
37455;SDS011;23316;50.718;7.328;2023-05-10T11:58:01;6.38;;;4.68;;
37455;SDS011;23316;50.718;7.328;2023-05-10T12:00:29;6.45;;;4.45;;
37455;SDS011;23316;50.718;7.328;2023-05-10T12:02:57;6.25;;;4.30;;
37455;SDS011;23316;50.718;7.328;2023-05-10T12:05:24;6.28;;;3.42;;
37455;SDS011;23316;50.718;7.328;2023-05-10T12:07:52;7.72;;;4.07;;
37455;SDS011;23316;50.718;7.328;2023-05-10T12:10:24;5.45;;;3.72;;
37455;SDS011;23316;50.718;7.328;2023-05-10T12:12:52;7.30;;;3.30;;
37455;SDS011;23316;50.718;7.328;2023-05-10T12:15:22;2.63;;;2.15;;
37455;SDS011;23316;50.718;7.328;2023-05-10T12:17:50;3.58;;;2.55;;
37455;SDS011;23316;50.718;7.328;2023-05-10T12:20:18;4.75;;;2.20;;
37455;SDS011;23316;50.718;7.328;2023-05-10T12:22:47;4.65;;;2.20;;
37455;SDS011;23316;50.718;7.328;2023-05-10T12:25:17;2.28;;;2.05;;
37455;SDS011;23316;50.718;7.328;2023-05-10T12:27:51;2.92;;;2.42;;
37455;SDS011;23316;50.718;7.328;2023-05-10T12:30:21;4.07;;;2.55;;
37455;SDS011;23316;50.718;7.328;2023-05-10T12:32:49;2.72;;;2.45;;
37455;SDS011;23316;50.718;7.328;2023-05-10T12:35:17;4.55;;;2.17;;
37455;SDS011;23316;50.718;7.328;2023-05-10T12:37:47;5.95;;;2.83;;
37455;SDS011;23316;50.718;7.328;2023-05-10T12:40:14;2.17;;;1.98;;
37455;SDS011;23316;50.718;7.328;2023-05-10T12:42:41;1.90;;;1.67;;
37455;SDS011;23316;50.718;7.328;2023-05-10T12:45:10;2.00;;;1.70;;
37455;SDS011;23316;50.718;7.328;2023-05-10T12:47:39;2.22;;;1.73;;
37455;SDS011;23316;50.718;7.328;2023-05-10T12:50:06;1.52;;;1.42;;
37455;SDS011;23316;50.718;7.328;2023-05-10T12:52:34;2.05;;;1.38;;
37455;SDS011;23316;50.718;7.328;2023-05-10T12:55:01;2.17;;;1.90;;
37455;SDS011;23316;50.718;7.328;2023-05-10T12:57:29;2.50;;;1.77;;
37455;SDS011;23316;50.718;7.328;2023-05-10T12:59:56;2.17;;;1.98;;
37455;SDS011;23316;50.718;7.328;2023-05-10T13:02:23;2.75;;;2.15;;
37455;SDS011;23316;50.718;7.328;2023-05-10T13:04:52;2.72;;;2.42;;
37455;SDS011;23316;50.718;7.328;2023-05-10T13:07:19;2.90;;;2.35;;
37455;SDS011;23316;50.718;7.328;2023-05-10T13:09:47;3.53;;;2.50;;
37455;SDS011;23316;50.718;7.328;2023-05-10T13:12:14;2.35;;;2.15;;
37455;SDS011;23316;50.718;7.328;2023-05-10T13:14:41;2.53;;;2.03;;
37455;SDS011;23316;50.718;7.328;2023-05-10T13:17:08;2.55;;;2.17;;
37455;SDS011;23316;50.718;7.328;2023-05-10T13:19:36;2.58;;;2.03;;
37455;SDS011;23316;50.718;7.328;2023-05-10T13:22:04;2.70;;;2.22;;
37455;SDS011;23316;50.718;7.328;2023-05-10T13:24:31;2.30;;;2.03;;
37455;SDS011;23316;50.718;7.328;2023-05-10T13:26:59;2.38;;;2.10;;
37455;SDS011;23316;50.718;7.328;2023-05-10T13:29:26;2.10;;;1.83;;
37455;SDS011;23316;50.718;7.328;2023-05-10T13:31:53;2.50;;;1.83;;
37455;SDS011;23316;50.718;7.328;2023-05-10T13:34:20;1.98;;;1.55;;
37455;SDS011;23316;50.718;7.328;2023-05-10T13:36:47;1.98;;;1.77;;
37455;SDS011;23316;50.718;7.328;2023-05-10T13:39:16;4.63;;;1.70;;
37455;SDS011;23316;50.718;7.328;2023-05-10T13:41:43;2.90;;;2.00;;
37455;SDS011;23316;50.718;7.328;2023-05-10T13:44:11;2.75;;;2.20;;
37455;SDS011;23316;50.718;7.328;2023-05-10T13:46:39;1.40;;;1.30;;
37455;SDS011;23316;50.718;7.328;2023-05-10T13:49:06;2.10;;;1.90;;
37455;SDS011;23316;50.718;7.328;2023-05-10T13:51:33;3.08;;;2.45;;
37455;SDS011;23316;50.718;7.328;2023-05-10T13:54:01;2.00;;;1.80;;
37455;SDS011;23316;50.718;7.328;2023-05-10T13:56:30;3.38;;;1.90;;
37455;SDS011;23316;50.718;7.328;2023-05-10T13:58:57;1.50;;;1.40;;
37455;SDS011;23316;50.718;7.328;2023-05-10T14:01:24;1.40;;;1.30;;
37455;SDS011;23316;50.718;7.328;2023-05-10T14:03:51;1.63;;;1.40;;
37455;SDS011;23316;50.718;7.328;2023-05-10T14:06:19;1.73;;;1.42;;
37455;SDS011;23316;50.718;7.328;2023-05-10T14:08:46;1.48;;;1.30;;
37455;SDS011;23316;50.718;7.328;2023-05-10T14:11:13;1.63;;;1.20;;
37455;SDS011;23316;50.718;7.328;2023-05-10T14:13:42;7.07;;;1.20;;
37455;SDS011;23316;50.718;7.328;2023-05-10T14:16:09;1.38;;;1.17;;
37455;SDS011;23316;50.718;7.328;2023-05-10T14:18:37;1.95;;;1.13;;
37455;SDS011;23316;50.718;7.328;2023-05-10T14:21:04;3.63;;;1.00;;
37455;SDS011;23316;50.718;7.328;2023-05-10T14:23:31;1.08;;;0.95;;
37455;SDS011;23316;50.718;7.328;2023-05-10T14:25:58;1.45;;;0.90;;
37455;SDS011;23316;50.718;7.328;2023-05-10T14:28:25;1.55;;;0.90;;
37455;SDS011;23316;50.718;7.328;2023-05-10T14:30:54;1.30;;;1.10;;
37455;SDS011;23316;50.718;7.328;2023-05-10T14:33:21;0.98;;;0.93;;
37455;SDS011;23316;50.718;7.328;2023-05-10T14:35:49;1.50;;;0.93;;
37455;SDS011;23316;50.718;7.328;2023-05-10T14:38:16;2.15;;;1.25;;
37455;SDS011;23316;50.718;7.328;2023-05-10T14:40:43;3.80;;;1.20;;
37455;SDS011;23316;50.718;7.328;2023-05-10T14:43:11;1.20;;;0.90;;
37455;SDS011;23316;50.718;7.328;2023-05-10T14:45:38;1.55;;;1.10;;
37455;SDS011;23316;50.718;7.328;2023-05-10T14:48:06;3.20;;;1.27;;
37455;SDS011;23316;50.718;7.328;2023-05-10T14:50:37;1.10;;;1.00;;
37455;SDS011;23316;50.718;7.328;2023-05-10T14:53:05;2.35;;;1.25;;
37455;SDS011;23316;50.718;7.328;2023-05-10T14:55:32;3.10;;;1.25;;
37455;SDS011;23316;50.718;7.328;2023-05-10T14:58:00;1.38;;;1.27;;
37455;SDS011;23316;50.718;7.328;2023-05-10T15:00:28;1.85;;;1.25;;
37455;SDS011;23316;50.718;7.328;2023-05-10T15:02:59;2.03;;;1.00;;
37455;SDS011;23316;50.718;7.328;2023-05-10T15:05:27;2.97;;;1.63;;